createdAt,value
2018-09-20T00:00:07.950Z,58.50
2018-09-20T00:02:42.310Z,58.60
2018-09-20T00:05:16.695Z,58.50
2018-09-20T00:07:51.062Z,58.40
2018-09-20T00:10:25.505Z,58.50
2018-09-20T00:12:59.886Z,58.40
2018-09-20T00:15:34.277Z,58.50
2018-09-20T00:18:08.791Z,58.50
2018-09-20T00:20:43.213Z,58.50
2018-09-20T00:23:17.634Z,58.70
2018-09-20T00:25:52.001Z,58.60
2018-09-20T00:28:26.449Z,58.50
2018-09-20T00:31:00.852Z,58.60
2018-09-20T00:33:36.019Z,58.60
2018-09-20T00:36:10.352Z,58.60
2018-09-20T00:38:44.673Z,58.50
2018-09-20T00:41:19.046Z,58.50
2018-09-20T00:43:53.651Z,58.60
2018-09-20T00:46:28.110Z,58.50
2018-09-20T00:49:02.481Z,58.60
2018-09-20T00:51:36.976Z,58.60
2018-09-20T00:54:11.342Z,58.70
2018-09-20T00:56:45.799Z,58.70
2018-09-20T00:59:20.219Z,58.70
2018-09-20T01:01:54.634Z,58.70
2018-09-20T01:04:28.943Z,58.70
2018-09-20T01:07:03.582Z,58.70
2018-09-20T01:09:37.975Z,58.70
2018-09-20T01:12:12.346Z,58.70
2018-09-20T01:14:46.754Z,58.80
2018-09-20T01:17:21.151Z,58.80
2018-09-20T01:19:55.554Z,58.80
2018-09-20T01:22:29.973Z,58.80
2018-09-20T01:25:04.427Z,58.90
2018-09-20T01:27:38.736Z,59.00
2018-09-20T01:30:13.215Z,59.00
2018-09-20T01:32:47.581Z,58.90
2018-09-20T01:35:22.039Z,58.90
2018-09-20T01:37:56.419Z,59.00
2018-09-20T01:40:30.817Z,59.00
2018-09-20T01:43:05.170Z,59.70
2018-09-20T01:45:39.545Z,59.10
2018-09-20T01:48:13.867Z,59.80
2018-09-20T01:50:48.279Z,59.20
2018-09-20T01:53:22.620Z,59.20
2018-09-20T01:55:56.956Z,59.10
2018-09-20T01:58:31.361Z,59.30
2018-09-20T02:01:05.841Z,59.40
2018-09-20T02:03:40.513Z,59.40
2018-09-20T02:06:14.887Z,59.40
2018-09-20T02:08:49.224Z,59.40
2018-09-20T02:11:23.755Z,59.50
2018-09-20T02:13:58.202Z,59.50
2018-09-20T02:16:32.689Z,59.50
2018-09-20T02:19:07.049Z,59.40
2018-09-20T02:21:41.462Z,59.50
2018-09-20T02:24:15.847Z,59.40
2018-09-20T02:26:50.176Z,59.30
2018-09-20T02:29:24.505Z,59.30
2018-09-20T02:31:58.975Z,59.20
2018-09-20T02:34:33.314Z,59.20
2018-09-20T02:37:07.727Z,59.10
2018-09-20T02:39:42.117Z,59.10
2018-09-20T02:42:16.459Z,59.20
2018-09-20T02:44:50.818Z,59.20
2018-09-20T02:47:25.227Z,59.30
2018-09-20T02:49:59.642Z,59.40
2018-09-20T02:52:33.961Z,59.40
2018-09-20T02:55:08.385Z,59.60
2018-09-20T02:57:42.705Z,59.70
2018-09-20T03:00:17.108Z,59.70
2018-09-20T03:02:51.502Z,59.70
2018-09-20T03:05:25.850Z,59.80
2018-09-20T03:08:00.236Z,59.70
2018-09-20T03:10:34.576Z,59.80
2018-09-20T03:13:08.929Z,59.80
2018-09-20T03:15:43.315Z,59.90
2018-09-20T03:18:17.656Z,60.00
2018-09-20T03:20:52.046Z,60.30
2018-09-20T03:23:26.415Z,60.40
2018-09-20T03:26:00.815Z,60.50
2018-09-20T03:28:35.178Z,60.50
2018-09-20T03:31:09.687Z,60.70
2018-09-20T03:33:44.031Z,60.80
2018-09-20T03:36:18.394Z,60.90
2018-09-20T03:38:52.780Z,60.90
2018-09-20T03:41:27.177Z,61.00
2018-09-20T03:44:01.545Z,61.10
2018-09-20T03:46:35.997Z,61.10
2018-09-20T03:49:10.371Z,61.00
2018-09-20T03:51:44.745Z,61.10
2018-09-20T03:54:19.100Z,61.20
2018-09-20T03:56:53.619Z,61.30
2018-09-20T03:59:27.938Z,61.30
2018-09-20T04:02:02.414Z,61.40
2018-09-20T04:04:36.740Z,61.40
2018-09-20T04:07:11.150Z,61.40
2018-09-20T04:09:45.601Z,61.50
2018-09-20T04:12:20.007Z,61.50
2018-09-20T04:14:54.341Z,61.40
2018-09-20T04:17:28.713Z,62.10
2018-09-20T04:20:03.185Z,61.40
2018-09-20T04:22:37.569Z,61.50
2018-09-20T04:25:12.015Z,61.50
2018-09-20T04:27:46.541Z,61.50
2018-09-20T04:30:20.894Z,61.60
2018-09-20T04:32:55.238Z,61.70
2018-09-20T04:35:29.603Z,61.70
2018-09-20T04:38:03.985Z,61.70
2018-09-20T04:40:38.370Z,61.80
2018-09-20T04:43:12.749Z,61.70
2018-09-20T04:45:47.096Z,61.70
2018-09-20T04:48:21.466Z,61.80
2018-09-20T04:50:55.878Z,61.90
2018-09-20T04:53:30.366Z,61.90
2018-09-20T04:56:04.715Z,61.90
2018-09-20T04:58:39.038Z,61.90
2018-09-20T05:01:13.430Z,62.00
2018-09-20T05:03:47.818Z,62.10
2018-09-20T05:06:22.143Z,62.10
2018-09-20T05:08:56.564Z,62.10
2018-09-20T05:11:30.998Z,62.10
2018-09-20T05:14:05.375Z,62.10
2018-09-20T05:16:41.279Z,62.00
2018-09-20T05:19:15.777Z,62.10
2018-09-20T05:21:50.184Z,62.20
2018-09-20T05:24:24.686Z,62.20
2018-09-20T05:26:59.015Z,62.10
2018-09-20T05:29:33.450Z,62.10
2018-09-20T05:32:07.834Z,62.10
2018-09-20T05:34:42.904Z,62.10
2018-09-20T05:37:17.240Z,62.20
2018-09-20T05:39:51.551Z,62.20
2018-09-20T05:42:25.878Z,62.20
2018-09-20T05:45:00.269Z,62.40
2018-09-20T05:47:34.639Z,62.40
2018-09-20T05:50:08.999Z,62.60
2018-09-20T05:52:43.414Z,62.70
2018-09-20T05:55:17.802Z,62.80
2018-09-20T05:57:52.178Z,62.90
2018-09-20T06:00:26.541Z,62.90
2018-09-20T06:03:00.872Z,63.00
2018-09-20T06:05:35.270Z,63.10
2018-09-20T06:08:10.062Z,63.30
2018-09-20T06:10:44.453Z,63.50
2018-09-20T06:13:19.008Z,63.60
2018-09-20T06:15:53.388Z,63.90
2018-09-20T06:18:27.729Z,64.10
2018-09-20T06:21:02.138Z,64.30
2018-09-20T06:23:36.486Z,64.50
2018-09-20T06:26:10.942Z,64.70
2018-09-20T06:28:45.276Z,64.80
2018-09-20T06:31:19.667Z,64.80
2018-09-20T06:33:54.200Z,64.90
2018-09-20T06:36:28.586Z,64.70
2018-09-20T06:39:03.090Z,64.70
2018-09-20T06:41:37.791Z,64.80
2018-09-20T06:44:12.202Z,64.80
2018-09-20T06:46:46.560Z,65.70
2018-09-20T06:49:20.935Z,65.40
2018-09-20T06:51:55.272Z,65.40
2018-09-20T06:54:29.662Z,65.50
2018-09-20T06:57:04.038Z,65.40
2018-09-20T06:59:38.401Z,65.30
2018-09-20T07:02:12.754Z,65.20
2018-09-20T07:04:47.182Z,65.10
2018-09-20T07:07:21.569Z,65.10
2018-09-20T07:09:55.931Z,65.20
2018-09-20T07:12:30.758Z,65.80
2018-09-20T07:15:06.648Z,65.20
2018-09-20T07:17:41.521Z,65.10
2018-09-20T07:20:15.856Z,65.00
2018-09-20T07:22:50.205Z,65.70
2018-09-20T07:25:24.604Z,64.90
2018-09-20T07:27:58.870Z,64.60
2018-09-20T07:30:33.259Z,64.60
2018-09-20T07:33:07.774Z,64.40
2018-09-20T07:35:42.138Z,64.50
2018-09-20T07:38:16.465Z,64.50
2018-09-20T07:40:50.805Z,64.20
2018-09-20T07:43:25.146Z,64.10
2018-09-20T07:45:59.479Z,63.60
2018-09-20T07:48:33.826Z,63.70
2018-09-20T07:51:08.181Z,63.40
2018-09-20T07:53:42.532Z,63.00
2018-09-20T07:56:16.830Z,62.80
2018-09-20T07:58:51.187Z,62.60
2018-09-20T08:01:25.653Z,62.60
2018-09-20T08:04:00.051Z,62.40
2018-09-20T08:06:34.530Z,62.20
2018-09-20T08:09:11.071Z,62.10
2018-09-20T08:11:47.803Z,61.50
2018-09-20T08:14:22.175Z,60.70
2018-09-20T08:16:56.556Z,60.10
2018-09-20T08:19:30.934Z,59.50
2018-09-20T08:22:05.315Z,59.50
2018-09-20T08:24:39.626Z,59.40
2018-09-20T08:27:14.013Z,59.10
2018-09-20T08:29:48.366Z,58.90
2018-09-20T08:32:22.776Z,58.90
2018-09-20T08:34:57.211Z,59.20
2018-09-20T08:37:31.595Z,59.30
2018-09-20T08:40:05.954Z,59.10
2018-09-20T08:42:40.384Z,58.90
2018-09-20T08:45:14.785Z,58.50
2018-09-20T08:47:49.090Z,58.10
2018-09-20T08:50:23.494Z,57.70
2018-09-20T08:52:57.805Z,58.10
2018-09-20T08:55:32.157Z,58.00
2018-09-20T08:58:06.569Z,57.80
2018-09-20T09:00:40.969Z,57.90
2018-09-20T09:03:15.332Z,57.70
2018-09-20T09:05:49.677Z,57.30
2018-09-20T09:08:24.171Z,56.90
2018-09-20T09:10:58.482Z,56.70
2018-09-20T09:13:32.826Z,56.30
2018-09-20T09:16:07.326Z,56.60
2018-09-20T09:18:41.638Z,56.70
2018-09-20T09:21:15.987Z,56.70
2018-09-20T09:23:50.376Z,56.80
2018-09-20T09:26:24.792Z,56.70
2018-09-20T09:28:59.283Z,56.60
2018-09-20T09:31:33.624Z,56.00
2018-09-20T09:34:07.938Z,55.90
2018-09-20T09:36:42.529Z,55.50
2018-09-20T09:39:16.824Z,55.00
2018-09-20T09:41:51.098Z,55.00
2018-09-20T09:44:25.380Z,54.40
2018-09-20T09:46:59.702Z,54.10
2018-09-20T09:49:34.015Z,54.10
2018-09-20T09:52:08.563Z,53.90
2018-09-20T09:54:42.915Z,53.80
2018-09-20T09:57:17.234Z,53.70
2018-09-20T09:59:51.572Z,53.60
2018-09-20T10:02:25.930Z,53.30
2018-09-20T10:05:00.223Z,53.00
2018-09-20T10:07:34.566Z,52.60
2018-09-20T10:10:08.889Z,52.50
2018-09-20T10:12:43.171Z,51.60
2018-09-20T10:15:18.127Z,50.30
2018-09-20T10:20:55.638Z,51.00
2018-09-20T10:23:29.918Z,49.70
2018-09-20T10:26:04.262Z,49.30
2018-09-20T10:28:38.546Z,49.20
2018-09-20T10:31:12.877Z,49.40
2018-09-20T10:33:47.298Z,49.20
2018-09-20T10:36:21.670Z,49.20
2018-09-20T10:38:56.009Z,49.30
2018-09-20T10:41:30.294Z,49.60
2018-09-20T10:44:04.594Z,49.00
2018-09-20T10:46:38.885Z,48.90
2018-09-20T10:49:13.231Z,48.60
2018-09-20T10:51:47.544Z,48.30
2018-09-20T10:54:21.901Z,48.60
2018-09-20T10:56:56.217Z,48.60
2018-09-20T10:59:30.554Z,48.30
2018-09-20T11:02:04.883Z,48.00
2018-09-20T11:04:39.202Z,47.90
2018-09-20T11:07:13.550Z,47.90
2018-09-20T11:09:47.880Z,47.80
2018-09-20T11:12:22.191Z,47.70
2018-09-20T11:14:56.473Z,47.30
2018-09-20T11:17:30.775Z,46.80
2018-09-20T11:20:05.590Z,46.40
2018-09-20T11:22:39.903Z,46.40
2018-09-20T11:25:14.254Z,46.00
2018-09-20T11:27:48.549Z,46.10
2018-09-20T11:30:22.883Z,46.10
2018-09-20T11:32:57.206Z,45.40
2018-09-20T11:35:31.537Z,44.40
2018-09-20T11:38:05.979Z,43.90
2018-09-20T11:40:40.268Z,43.60
2018-09-20T11:43:14.566Z,43.70
2018-09-20T11:45:48.873Z,44.10
2018-09-20T11:48:23.166Z,43.80
2018-09-20T11:50:57.487Z,43.20
2018-09-20T11:53:31.774Z,43.20
2018-09-20T11:56:06.091Z,43.40
2018-09-20T11:58:40.474Z,43.30
2018-09-20T12:01:14.781Z,43.00
2018-09-20T12:03:49.077Z,42.50
2018-09-20T12:06:23.477Z,42.10
2018-09-20T12:08:57.805Z,43.20
2018-09-20T12:11:32.135Z,42.10
2018-09-20T12:14:06.482Z,42.00
2018-09-20T12:16:40.805Z,41.90
2018-09-20T12:19:15.154Z,42.00
2018-09-20T12:21:49.449Z,42.00
2018-09-20T12:24:23.751Z,41.30
2018-09-20T12:26:58.136Z,41.30
2018-09-20T12:29:32.464Z,41.00
2018-09-20T12:32:06.880Z,40.70
2018-09-20T12:34:41.163Z,40.80
2018-09-20T12:37:15.436Z,41.00
2018-09-20T12:39:49.746Z,41.00
2018-09-20T12:42:24.058Z,39.90
2018-09-20T12:44:58.566Z,39.50
2018-09-20T12:47:33.298Z,39.10
2018-09-20T12:50:07.816Z,39.30
2018-09-20T12:52:42.179Z,39.60
2018-09-20T12:55:16.493Z,39.70
2018-09-20T12:57:50.801Z,39.40
2018-09-20T13:00:25.113Z,39.10
2018-09-20T13:02:59.430Z,39.40
2018-09-20T13:05:33.795Z,39.30
2018-09-20T13:08:08.134Z,39.10
2018-09-20T13:10:42.450Z,38.90
2018-09-20T13:13:16.861Z,38.00
2018-09-20T13:15:51.211Z,38.20
2018-09-20T13:18:25.541Z,38.70
2018-09-20T13:20:59.895Z,39.10
2018-09-20T13:23:34.243Z,38.10
2018-09-20T13:26:08.633Z,37.70
2018-09-20T13:28:42.913Z,37.40
2018-09-20T13:31:17.254Z,38.10
2018-09-20T13:33:51.546Z,38.10
2018-09-20T13:36:25.897Z,38.30
2018-09-20T13:39:00.243Z,38.60
2018-09-20T13:41:34.595Z,38.20
2018-09-20T13:44:09.030Z,38.20
2018-09-20T13:46:43.426Z,38.30
2018-09-20T13:49:17.764Z,38.00
2018-09-20T13:51:52.058Z,37.90
2018-09-20T13:54:26.386Z,37.20
2018-09-20T13:57:00.721Z,37.00
2018-09-20T13:59:35.017Z,37.20
2018-09-20T14:02:09.681Z,37.10
2018-09-20T14:04:44.067Z,37.30
2018-09-20T14:07:18.376Z,38.10
2018-09-20T14:09:52.685Z,37.60
2018-09-20T14:12:27.005Z,37.50
2018-09-20T14:15:01.339Z,37.10
2018-09-20T14:17:35.922Z,38.00
2018-09-20T14:20:10.285Z,37.60
2018-09-20T14:22:44.654Z,37.30
2018-09-20T14:25:19.431Z,37.50
2018-09-20T14:27:53.751Z,37.20
2018-09-20T14:30:28.078Z,37.20
2018-09-20T14:33:02.423Z,37.10
2018-09-20T14:35:36.719Z,37.10
2018-09-20T14:38:11.041Z,37.30
2018-09-20T14:40:45.391Z,37.30
2018-09-20T14:43:19.674Z,37.50
2018-09-20T14:45:53.998Z,37.70
2018-09-20T14:48:28.310Z,37.50
2018-09-20T14:51:02.601Z,37.80
2018-09-20T14:53:36.897Z,37.60
2018-09-20T14:56:11.229Z,37.70
2018-09-20T14:58:45.577Z,37.50
2018-09-20T15:01:19.875Z,37.30
2018-09-20T15:03:54.206Z,37.30
2018-09-20T15:06:28.496Z,36.90
2018-09-20T15:09:03.077Z,36.90
2018-09-20T15:11:37.402Z,37.10
2018-09-20T15:14:11.709Z,37.40
2018-09-20T15:16:46.042Z,37.50
2018-09-20T15:19:20.434Z,37.30
2018-09-20T15:21:54.730Z,37.10
2018-09-20T15:24:29.037Z,36.80
2018-09-20T15:27:03.340Z,36.90
2018-09-20T15:29:37.622Z,36.90
2018-09-20T15:32:11.913Z,37.10
2018-09-20T15:34:46.378Z,37.10
2018-09-20T15:37:20.689Z,37.20
2018-09-20T15:39:55.067Z,37.50
2018-09-20T15:42:29.325Z,38.30
2018-09-20T15:45:03.714Z,38.00
2018-09-20T15:47:38.022Z,38.20
2018-09-20T15:50:12.331Z,38.60
2018-09-20T15:52:46.634Z,38.80
2018-09-20T15:55:20.944Z,39.20
2018-09-20T15:57:55.270Z,39.50
2018-09-20T16:00:29.577Z,40.40
2018-09-20T16:03:03.879Z,40.10
2018-09-20T16:05:38.206Z,40.40
2018-09-20T16:08:12.531Z,40.50
2018-09-20T16:10:46.826Z,40.80
2018-09-20T16:13:21.110Z,41.00
2018-09-20T16:15:55.501Z,41.30
2018-09-20T16:18:29.833Z,41.60
2018-09-20T16:21:04.199Z,41.80
2018-09-20T16:23:38.577Z,42.10
2018-09-20T16:26:12.874Z,42.40
2018-09-20T16:29:16.815Z,42.60
2018-09-20T16:32:06.150Z,42.70
2018-09-20T16:35:52.361Z,42.80
2018-09-20T16:38:36.331Z,42.90
2018-09-20T16:41:13.957Z,43.00
2018-09-20T16:43:48.274Z,43.20
2018-09-20T16:46:22.609Z,43.50
2018-09-20T16:48:56.925Z,43.90
2018-09-20T16:51:31.293Z,44.00
2018-09-20T16:54:05.705Z,44.30
2018-09-20T16:56:39.985Z,44.50
2018-09-20T16:59:14.331Z,44.70
2018-09-20T17:01:48.635Z,45.00
2018-09-20T17:04:22.981Z,45.20
2018-09-20T17:06:57.272Z,45.30
2018-09-20T17:09:31.588Z,45.30
2018-09-20T17:12:05.887Z,45.50
2018-09-20T17:14:40.340Z,45.80
2018-09-20T17:17:14.634Z,46.20
2018-09-20T17:19:49.013Z,46.20
2018-09-20T17:22:23.298Z,46.30
2018-09-20T17:24:57.624Z,46.40
2018-09-20T17:27:31.971Z,47.20
2018-09-20T17:30:06.582Z,47.00
2018-09-20T17:32:40.874Z,47.10
2018-09-20T17:35:15.825Z,47.20
2018-09-20T17:37:51.130Z,47.30
2018-09-20T17:40:26.714Z,47.50
2018-09-20T17:43:04.362Z,47.60
2018-09-20T17:45:38.660Z,47.60
2018-09-20T17:48:12.957Z,47.70
2018-09-20T17:50:47.478Z,47.70
2018-09-20T17:53:22.120Z,47.80
2018-09-20T17:55:57.113Z,48.00
2018-09-20T17:58:31.934Z,48.30
2018-09-20T18:01:06.414Z,48.30
2018-09-20T18:03:40.764Z,48.30
2018-09-20T18:06:15.094Z,48.50
2018-09-20T18:08:49.401Z,48.50
2018-09-20T18:11:23.717Z,48.60
2018-09-20T18:13:57.994Z,48.70
2018-09-20T18:16:32.394Z,48.70
2018-09-20T18:19:06.682Z,48.80
2018-09-20T18:21:41.066Z,49.00
2018-09-20T18:24:15.369Z,49.10
2018-09-20T18:26:50.436Z,49.30
2018-09-20T18:29:24.758Z,49.40
2018-09-20T18:31:59.059Z,49.60
2018-09-20T18:34:33.357Z,49.70
2018-09-20T18:37:07.712Z,49.70
2018-09-20T18:39:42.079Z,49.80
2018-09-20T18:42:16.370Z,50.00
2018-09-20T18:44:50.853Z,50.00
2018-09-20T18:47:25.170Z,50.00
2018-09-20T18:49:59.640Z,50.10
2018-09-20T18:52:33.988Z,50.30
2018-09-20T18:55:08.308Z,50.30
2018-09-20T18:57:42.597Z,50.40
2018-09-20T19:00:16.898Z,51.00
2018-09-20T19:02:51.422Z,50.60
2018-09-20T19:05:25.758Z,50.60
2018-09-20T19:08:00.101Z,50.70
2018-09-20T19:10:34.378Z,50.80
2018-09-20T19:13:08.686Z,50.90
2018-09-20T19:15:42.990Z,51.00
2018-09-20T19:18:17.306Z,51.20
2018-09-20T19:20:51.693Z,51.30
2018-09-20T19:23:25.992Z,51.30
2018-09-20T19:26:00.282Z,51.30
2018-09-20T19:28:34.607Z,51.50
2018-09-20T19:31:08.948Z,51.60
2018-09-20T19:33:43.238Z,51.90
2018-09-20T19:36:17.554Z,52.10
2018-09-20T19:38:52.092Z,52.20
2018-09-20T19:41:26.405Z,52.30
2018-09-20T19:44:00.786Z,52.40
2018-09-20T19:46:35.106Z,52.60
2018-09-20T19:49:09.430Z,52.60
2018-09-20T19:51:43.800Z,52.70
2018-09-20T19:54:18.254Z,52.90
2018-09-20T19:56:52.623Z,52.90
2018-09-20T19:59:26.944Z,53.00
2018-09-20T20:02:01.258Z,53.10
2018-09-20T20:04:35.640Z,53.10
2018-09-20T20:07:09.965Z,53.30
2018-09-20T20:09:44.297Z,53.40
2018-09-20T20:12:18.610Z,53.50
2018-09-20T20:14:52.909Z,53.90
2018-09-20T20:17:27.207Z,54.00
2018-09-20T20:20:01.574Z,54.00
2018-09-20T20:22:35.850Z,54.20
2018-09-20T20:25:10.997Z,54.40
2018-09-20T20:27:45.334Z,54.20
2018-09-20T20:30:19.759Z,54.30
2018-09-20T20:32:54.070Z,54.50
2018-09-20T20:35:28.417Z,54.60
2018-09-20T20:38:02.711Z,54.60
2018-09-20T20:40:37.385Z,54.80
2018-09-20T20:43:11.726Z,54.70
2018-09-20T20:45:46.209Z,54.80
2018-09-20T20:48:20.595Z,54.80
2018-09-20T20:50:54.945Z,55.00
2018-09-20T20:53:29.255Z,55.00
2018-09-20T20:56:03.618Z,54.90
2018-09-20T20:58:38.000Z,55.00
2018-09-20T21:01:17.601Z,54.90
2018-09-20T21:03:51.955Z,55.10
2018-09-20T21:06:26.285Z,55.10
2018-09-20T21:09:00.650Z,55.30
2018-09-20T21:11:35.243Z,55.40
2018-09-20T21:14:09.587Z,55.50
2018-09-20T21:16:44.273Z,55.50
2018-09-20T21:19:18.602Z,55.60
2018-09-20T21:21:52.950Z,55.50
2018-09-20T21:24:27.244Z,55.50
2018-09-20T21:27:01.642Z,55.80
2018-09-20T21:29:35.938Z,55.90
2018-09-20T21:32:10.598Z,55.90
2018-09-20T21:34:44.929Z,56.20
2018-09-20T21:37:19.364Z,56.30
2018-09-20T21:39:53.751Z,56.50
2018-09-20T21:42:28.090Z,56.50
2018-09-20T21:45:02.424Z,56.80
2018-09-20T21:47:36.812Z,56.90
2018-09-20T21:50:11.207Z,57.10
2018-09-20T21:52:45.552Z,57.20
2018-09-20T21:55:19.879Z,57.40
2018-09-20T21:57:54.683Z,57.50
2018-09-20T22:00:29.066Z,57.70
2018-09-20T22:03:05.117Z,57.80
2018-09-20T22:05:39.448Z,57.90
2018-09-20T22:08:13.785Z,57.80
2018-09-20T22:10:48.074Z,57.80
2018-09-20T22:13:22.465Z,57.80
2018-09-20T22:15:56.771Z,57.80
2018-09-20T22:18:31.114Z,57.80
2018-09-20T22:21:05.413Z,57.80
2018-09-20T22:23:40.087Z,57.90
2018-09-20T22:26:14.434Z,58.00
2018-09-20T22:28:49.139Z,58.20
2018-09-20T22:31:23.418Z,58.20
2018-09-20T22:33:57.781Z,58.30
2018-09-20T22:36:32.085Z,58.30
2018-09-20T22:39:08.784Z,58.30
2018-09-20T22:41:43.087Z,58.30
2018-09-20T22:44:17.414Z,58.40
2018-09-20T22:46:51.703Z,58.50
2018-09-20T22:49:26.150Z,58.60
2018-09-20T22:52:00.473Z,58.80
2018-09-20T22:54:34.794Z,58.90
2018-09-20T22:57:09.097Z,59.10
2018-09-20T22:59:43.761Z,59.10
2018-09-20T23:02:18.050Z,59.20
2018-09-20T23:04:52.486Z,59.30
2018-09-20T23:07:26.857Z,59.50
2018-09-20T23:10:01.205Z,59.60
2018-09-20T23:12:35.494Z,59.70
2018-09-20T23:15:09.855Z,59.70
2018-09-20T23:17:44.143Z,59.70
2018-09-20T23:20:18.816Z,59.70
2018-09-20T23:22:53.113Z,59.60
2018-09-20T23:25:27.432Z,59.50
2018-09-20T23:28:01.747Z,59.30
2018-09-20T23:30:36.477Z,59.20
2018-09-20T23:33:10.757Z,59.10
2018-09-20T23:35:45.222Z,59.00
2018-09-20T23:38:19.522Z,58.90
2018-09-20T23:40:53.913Z,58.80
2018-09-20T23:43:28.249Z,58.80
2018-09-20T23:46:02.591Z,58.70
2018-09-20T23:48:36.913Z,58.70
2018-09-20T23:51:11.233Z,58.70
2018-09-20T23:53:45.657Z,58.60
2018-09-20T23:56:20.070Z,58.50
2018-09-20T23:58:54.435Z,58.60
